Terminal Aerodrome Forecast
Issued by NWS Indianapolis, IN

Home | Current Version | Previous Version | Text Only | Print | Product List | Glossary On
Versions: 1 2 3 4 5 6 7 8 9 10 11 12 13 14 15 16 17 18 19 20 21 22 23 24 25 26 27 28 29 30
121
FTUS43 KIND 252021 AAA
TAFIND
TAF AMD
KIND 252021Z 2520/2624 19005KT P6SM SCT050 BKN080
     FM260400 17005KT P6SM VCTS SCT050CB
     FM260900 26012KT P6SM -TSRA OVC040CB
     FM261200 28014KT P6SM VCSH OVC020
     FM261700 28012KT P6SM SCT020 SCT250=

USA.gov is the U.S. government's official web portal to all federal, state and local government web resources and services.